Blue Diamond, Kentucky
Current Conditions -  °F | °C
As of 2:53 PM on Thursday 29 Jan 2015 (Local Time) from KJKL Reporting Station
Overcast Overcast  
Wind Chill: 53°   Ceiling: 4200
Heat Index: 53°   Visibility: 10mi
Dew Point: 36°   Wind: 15mph
Humidity: 52%   Direction: 240°WSW
Pressure: 29.9"   Gusts: 30mph
Location:  37.3117°N, 83.2191°W
Report Text: KJKL 291953Z AUTO 24013G26KT 10SM OVC042 12/02 A2990 RMK AO2 PK WND 24026/1947 SLP126 T01170022
Loading
Personal Weather Stations






























Interactive Weather Map New forecast layout! Learn more

10-Day Weather Forecast

Advertisements
Track Severe Weather on mobile